sensor_id;sensor_type;location;lat;lon;timestamp;P1;durP1;ratioP1;P2;durP2;ratioP2
5979;SDS011;3016;50.308;8.258;2023-02-15T00:00:53;60.27;;;20.20;;
5979;SDS011;3016;50.308;8.258;2023-02-15T00:03:54;59.60;;;21.50;;
5979;SDS011;3016;50.308;8.258;2023-02-15T00:06:55;55.83;;;20.40;;
5979;SDS011;3016;50.308;8.258;2023-02-15T00:09:56;51.43;;;20.70;;
5979;SDS011;3016;50.308;8.258;2023-02-15T00:12:59;54.83;;;20.77;;
5979;SDS011;3016;50.308;8.258;2023-02-15T00:16:04;61.80;;;23.10;;
5979;SDS011;3016;50.308;8.258;2023-02-15T00:19:07;55.30;;;22.10;;
5979;SDS011;3016;50.308;8.258;2023-02-15T00:25:29;50.57;;;20.20;;
5979;SDS011;3016;50.308;8.258;2023-02-15T00:28:30;56.20;;;20.43;;
5979;SDS011;3016;50.308;8.258;2023-02-15T00:31:32;57.47;;;21.50;;
5979;SDS011;3016;50.308;8.258;2023-02-15T00:34:41;51.47;;;17.70;;
5979;SDS011;3016;50.308;8.258;2023-02-15T00:37:43;47.93;;;18.37;;
5979;SDS011;3016;50.308;8.258;2023-02-15T00:40:44;61.97;;;20.97;;
5979;SDS011;3016;50.308;8.258;2023-02-15T00:43:52;52.77;;;20.03;;
5979;SDS011;3016;50.308;8.258;2023-02-15T00:46:53;57.43;;;21.30;;
5979;SDS011;3016;50.308;8.258;2023-02-15T00:49:54;56.80;;;19.33;;
5979;SDS011;3016;50.308;8.258;2023-02-15T00:52:55;50.13;;;18.73;;
5979;SDS011;3016;50.308;8.258;2023-02-15T00:55:56;50.20;;;18.90;;
5979;SDS011;3016;50.308;8.258;2023-02-15T00:58:57;49.13;;;18.00;;
5979;SDS011;3016;50.308;8.258;2023-02-15T01:01:58;44.27;;;16.13;;
5979;SDS011;3016;50.308;8.258;2023-02-15T01:04:59;47.17;;;18.40;;
5979;SDS011;3016;50.308;8.258;2023-02-15T01:08:00;49.17;;;18.60;;
5979;SDS011;3016;50.308;8.258;2023-02-15T01:11:05;49.87;;;17.97;;
5979;SDS011;3016;50.308;8.258;2023-02-15T01:14:09;50.80;;;17.13;;
5979;SDS011;3016;50.308;8.258;2023-02-15T01:17:11;50.73;;;18.17;;
5979;SDS011;3016;50.308;8.258;2023-02-15T01:20:11;44.63;;;16.20;;
5979;SDS011;3016;50.308;8.258;2023-02-15T01:23:13;45.60;;;16.40;;
5979;SDS011;3016;50.308;8.258;2023-02-15T01:26:25;47.00;;;16.60;;
5979;SDS011;3016;50.308;8.258;2023-02-15T01:29:35;47.10;;;18.47;;
5979;SDS011;3016;50.308;8.258;2023-02-15T01:32:42;51.40;;;16.10;;
5979;SDS011;3016;50.308;8.258;2023-02-15T01:35:46;44.37;;;18.07;;
5979;SDS011;3016;50.308;8.258;2023-02-15T01:38:47;53.17;;;16.53;;
5979;SDS011;3016;50.308;8.258;2023-02-15T01:41:49;51.57;;;18.70;;
5979;SDS011;3016;50.308;8.258;2023-02-15T01:44:54;49.37;;;18.50;;
5979;SDS011;3016;50.308;8.258;2023-02-15T01:51:22;50.00;;;17.37;;
5979;SDS011;3016;50.308;8.258;2023-02-15T01:54:30;49.60;;;17.97;;
5979;SDS011;3016;50.308;8.258;2023-02-15T01:57:35;51.83;;;19.00;;
5979;SDS011;3016;50.308;8.258;2023-02-15T02:00:37;54.83;;;18.80;;
5979;SDS011;3016;50.308;8.258;2023-02-15T02:03:56;59.57;;;18.93;;
5979;SDS011;3016;50.308;8.258;2023-02-15T02:07:16;49.60;;;16.67;;
5979;SDS011;3016;50.308;8.258;2023-02-15T02:10:21;52.90;;;16.93;;
5979;SDS011;3016;50.308;8.258;2023-02-15T02:13:23;51.63;;;17.90;;
5979;SDS011;3016;50.308;8.258;2023-02-15T02:16:42;45.60;;;16.27;;
5979;SDS011;3016;50.308;8.258;2023-02-15T02:24:03;39.10;;;15.27;;
5979;SDS011;3016;50.308;8.258;2023-02-15T02:34:24;56.10;;;16.70;;
5979;SDS011;3016;50.308;8.258;2023-02-15T02:37:40;47.33;;;16.23;;
5979;SDS011;3016;50.308;8.258;2023-02-15T02:41:17;48.70;;;16.87;;
5979;SDS011;3016;50.308;8.258;2023-02-15T02:44:47;40.63;;;14.80;;
5979;SDS011;3016;50.308;8.258;2023-02-15T02:48:14;40.50;;;14.23;;
5979;SDS011;3016;50.308;8.258;2023-02-15T02:51:20;37.20;;;13.97;;
5979;SDS011;3016;50.308;8.258;2023-02-15T02:54:24;39.50;;;13.10;;
5979;SDS011;3016;50.308;8.258;2023-02-15T02:57:25;39.80;;;15.57;;
5979;SDS011;3016;50.308;8.258;2023-02-15T03:00:29;38.03;;;14.27;;
5979;SDS011;3016;50.308;8.258;2023-02-15T03:03:44;42.00;;;14.80;;
5979;SDS011;3016;50.308;8.258;2023-02-15T03:07:00;39.23;;;15.33;;
5979;SDS011;3016;50.308;8.258;2023-02-15T03:10:06;40.53;;;15.00;;
5979;SDS011;3016;50.308;8.258;2023-02-15T03:13:09;39.10;;;14.10;;
5979;SDS011;3016;50.308;8.258;2023-02-15T03:16:11;46.93;;;16.20;;
5979;SDS011;3016;50.308;8.258;2023-02-15T03:19:27;42.00;;;14.90;;
5979;SDS011;3016;50.308;8.258;2023-02-15T03:22:41;38.43;;;14.03;;
5979;SDS011;3016;50.308;8.258;2023-02-15T03:29:37;51.87;;;16.37;;
5979;SDS011;3016;50.308;8.258;2023-02-15T03:32:40;48.50;;;18.33;;
5979;SDS011;3016;50.308;8.258;2023-02-15T03:35:45;45.83;;;16.40;;
5979;SDS011;3016;50.308;8.258;2023-02-15T03:39:08;42.60;;;14.80;;
5979;SDS011;3016;50.308;8.258;2023-02-15T03:42:30;50.63;;;16.03;;
5979;SDS011;3016;50.308;8.258;2023-02-15T03:45:34;40.03;;;16.47;;
5979;SDS011;3016;50.308;8.258;2023-02-15T03:48:50;39.73;;;15.60;;
5979;SDS011;3016;50.308;8.258;2023-02-15T03:52:14;41.77;;;14.50;;
5979;SDS011;3016;50.308;8.258;2023-02-15T03:55:17;42.40;;;15.53;;
5979;SDS011;3016;50.308;8.258;2023-02-15T03:58:19;43.40;;;16.50;;
5979;SDS011;3016;50.308;8.258;2023-02-15T04:01:45;43.87;;;15.77;;
5979;SDS011;3016;50.308;8.258;2023-02-15T04:05:19;50.13;;;16.33;;
5979;SDS011;3016;50.308;8.258;2023-02-15T04:08:20;43.97;;;15.83;;
5979;SDS011;3016;50.308;8.258;2023-02-15T04:11:41;47.23;;;17.60;;
5979;SDS011;3016;50.308;8.258;2023-02-15T04:14:43;40.93;;;16.93;;
5979;SDS011;3016;50.308;8.258;2023-02-15T04:18:03;41.97;;;15.47;;
5979;SDS011;3016;50.308;8.258;2023-02-15T04:21:04;42.30;;;14.50;;
5979;SDS011;3016;50.308;8.258;2023-02-15T04:24:24;43.77;;;15.30;;
5979;SDS011;3016;50.308;8.258;2023-02-15T04:27:45;49.30;;;16.87;;
5979;SDS011;3016;50.308;8.258;2023-02-15T04:30:50;41.70;;;15.80;;
5979;SDS011;3016;50.308;8.258;2023-02-15T04:33:51;45.77;;;16.40;;
5979;SDS011;3016;50.308;8.258;2023-02-15T04:36:53;45.67;;;16.60;;
5979;SDS011;3016;50.308;8.258;2023-02-15T04:39:54;39.33;;;14.47;;
5979;SDS011;3016;50.308;8.258;2023-02-15T04:42:55;43.63;;;16.20;;
5979;SDS011;3016;50.308;8.258;2023-02-15T04:45:57;45.77;;;16.73;;
5979;SDS011;3016;50.308;8.258;2023-02-15T04:49:00;44.57;;;16.23;;
5979;SDS011;3016;50.308;8.258;2023-02-15T04:52:01;43.23;;;16.10;;
5979;SDS011;3016;50.308;8.258;2023-02-15T04:55:03;44.70;;;16.20;;
5979;SDS011;3016;50.308;8.258;2023-02-15T04:58:05;40.83;;;16.00;;
5979;SDS011;3016;50.308;8.258;2023-02-15T05:01:07;41.17;;;16.53;;
5979;SDS011;3016;50.308;8.258;2023-02-15T05:04:08;41.77;;;16.03;;
5979;SDS011;3016;50.308;8.258;2023-02-15T05:07:10;38.90;;;15.87;;
5979;SDS011;3016;50.308;8.258;2023-02-15T05:10:11;48.87;;;20.03;;
5979;SDS011;3016;50.308;8.258;2023-02-15T05:13:13;51.47;;;19.37;;
5979;SDS011;3016;50.308;8.258;2023-02-15T05:16:15;49.17;;;18.80;;
5979;SDS011;3016;50.308;8.258;2023-02-15T05:19:18;39.97;;;14.10;;
5979;SDS011;3016;50.308;8.258;2023-02-15T05:22:26;44.33;;;17.90;;
5979;SDS011;3016;50.308;8.258;2023-02-15T05:25:27;44.40;;;16.37;;
5979;SDS011;3016;50.308;8.258;2023-02-15T05:28:46;51.70;;;18.20;;
5979;SDS011;3016;50.308;8.258;2023-02-15T05:31:47;44.30;;;18.40;;
5979;SDS011;3016;50.308;8.258;2023-02-15T05:34:48;46.43;;;16.63;;
5979;SDS011;3016;50.308;8.258;2023-02-15T05:37:52;51.57;;;19.07;;
5979;SDS011;3016;50.308;8.258;2023-02-15T05:41:01;57.50;;;18.57;;
5979;SDS011;3016;50.308;8.258;2023-02-15T05:44:02;52.63;;;21.53;;
5979;SDS011;3016;50.308;8.258;2023-02-15T05:47:04;62.77;;;21.63;;
5979;SDS011;3016;50.308;8.258;2023-02-15T05:50:07;60.23;;;22.07;;
5979;SDS011;3016;50.308;8.258;2023-02-15T05:53:11;59.40;;;22.00;;
5979;SDS011;3016;50.308;8.258;2023-02-15T05:56:14;72.50;;;25.63;;
5979;SDS011;3016;50.308;8.258;2023-02-15T05:59:29;63.10;;;21.80;;
5979;SDS011;3016;50.308;8.258;2023-02-15T06:02:33;50.80;;;18.67;;
5979;SDS011;3016;50.308;8.258;2023-02-15T06:09:10;62.27;;;21.83;;
5979;SDS011;3016;50.308;8.258;2023-02-15T06:12:12;71.37;;;23.30;;
5979;SDS011;3016;50.308;8.258;2023-02-15T06:15:13;73.53;;;22.43;;
5979;SDS011;3016;50.308;8.258;2023-02-15T06:18:23;60.40;;;24.73;;
5979;SDS011;3016;50.308;8.258;2023-02-15T06:21:24;74.50;;;24.70;;
5979;SDS011;3016;50.308;8.258;2023-02-15T06:24:25;68.90;;;24.40;;
5979;SDS011;3016;50.308;8.258;2023-02-15T06:27:36;74.70;;;24.50;;
5979;SDS011;3016;50.308;8.258;2023-02-15T06:30:38;69.07;;;24.80;;
5979;SDS011;3016;50.308;8.258;2023-02-15T06:33:39;79.17;;;28.13;;
5979;SDS011;3016;50.308;8.258;2023-02-15T06:36:40;69.33;;;24.43;;
5979;SDS011;3016;50.308;8.258;2023-02-15T06:39:40;81.40;;;26.80;;
5979;SDS011;3016;50.308;8.258;2023-02-15T06:42:42;86.00;;;25.63;;
5979;SDS011;3016;50.308;8.258;2023-02-15T06:45:43;67.57;;;25.87;;
5979;SDS011;3016;50.308;8.258;2023-02-15T06:48:46;70.17;;;24.27;;
5979;SDS011;3016;50.308;8.258;2023-02-15T06:51:47;64.57;;;24.00;;
5979;SDS011;3016;50.308;8.258;2023-02-15T06:54:48;80.60;;;26.90;;
5979;SDS011;3016;50.308;8.258;2023-02-15T06:57:48;66.57;;;24.30;;
5979;SDS011;3016;50.308;8.258;2023-02-15T07:00:50;75.93;;;25.73;;
5979;SDS011;3016;50.308;8.258;2023-02-15T07:03:51;73.93;;;26.10;;
5979;SDS011;3016;50.308;8.258;2023-02-15T07:06:52;77.13;;;27.50;;
5979;SDS011;3016;50.308;8.258;2023-02-15T07:09:52;67.87;;;24.47;;
5979;SDS011;3016;50.308;8.258;2023-02-15T07:12:53;71.37;;;25.87;;
5979;SDS011;3016;50.308;8.258;2023-02-15T07:15:54;72.70;;;25.20;;
5979;SDS011;3016;50.308;8.258;2023-02-15T07:18:54;70.10;;;24.17;;
5979;SDS011;3016;50.308;8.258;2023-02-15T07:21:55;73.90;;;26.77;;
5979;SDS011;3016;50.308;8.258;2023-02-15T07:24:56;66.70;;;25.07;;
5979;SDS011;3016;50.308;8.258;2023-02-15T07:27:57;83.47;;;26.50;;
5979;SDS011;3016;50.308;8.258;2023-02-15T07:31:03;66.80;;;25.90;;
5979;SDS011;3016;50.308;8.258;2023-02-15T07:34:05;77.00;;;27.40;;
5979;SDS011;3016;50.308;8.258;2023-02-15T07:37:07;69.33;;;25.80;;
5979;SDS011;3016;50.308;8.258;2023-02-15T07:40:08;83.63;;;28.33;;
5979;SDS011;3016;50.308;8.258;2023-02-15T07:43:09;76.30;;;27.03;;
5979;SDS011;3016;50.308;8.258;2023-02-15T07:46:10;66.60;;;23.57;;
5979;SDS011;3016;50.308;8.258;2023-02-15T07:49:14;61.70;;;22.70;;
5979;SDS011;3016;50.308;8.258;2023-02-15T07:52:15;61.80;;;23.03;;
5979;SDS011;3016;50.308;8.258;2023-02-15T07:55:15;53.90;;;21.60;;
5979;SDS011;3016;50.308;8.258;2023-02-15T07:58:16;72.20;;;24.73;;
5979;SDS011;3016;50.308;8.258;2023-02-15T08:01:18;76.10;;;24.20;;
5979;SDS011;3016;50.308;8.258;2023-02-15T08:04:46;56.90;;;21.27;;
5979;SDS011;3016;50.308;8.258;2023-02-15T08:07:47;65.97;;;21.60;;
5979;SDS011;3016;50.308;8.258;2023-02-15T08:10:47;63.43;;;21.87;;
5979;SDS011;3016;50.308;8.258;2023-02-15T08:14:11;59.23;;;21.40;;
5979;SDS011;3016;50.308;8.258;2023-02-15T08:17:20;74.90;;;24.00;;
5979;SDS011;3016;50.308;8.258;2023-02-15T08:20:20;55.30;;;19.90;;
5979;SDS011;3016;50.308;8.258;2023-02-15T08:23:21;64.07;;;22.60;;
5979;SDS011;3016;50.308;8.258;2023-02-15T08:26:22;62.17;;;20.47;;
5979;SDS011;3016;50.308;8.258;2023-02-15T08:29:25;58.87;;;20.20;;
5979;SDS011;3016;50.308;8.258;2023-02-15T08:32:27;61.83;;;22.60;;
5979;SDS011;3016;50.308;8.258;2023-02-15T08:35:28;61.43;;;20.33;;
5979;SDS011;3016;50.308;8.258;2023-02-15T08:38:29;51.93;;;18.33;;
5979;SDS011;3016;50.308;8.258;2023-02-15T08:41:30;56.73;;;19.53;;
5979;SDS011;3016;50.308;8.258;2023-02-15T08:44:34;53.30;;;19.60;;
5979;SDS011;3016;50.308;8.258;2023-02-15T08:47:34;47.70;;;18.23;;
5979;SDS011;3016;50.308;8.258;2023-02-15T08:50:35;47.20;;;17.30;;
5979;SDS011;3016;50.308;8.258;2023-02-15T08:53:40;50.33;;;18.77;;
5979;SDS011;3016;50.308;8.258;2023-02-15T08:56:43;51.13;;;17.57;;
5979;SDS011;3016;50.308;8.258;2023-02-15T08:59:44;50.53;;;16.87;;
5979;SDS011;3016;50.308;8.258;2023-02-15T09:02:45;43.57;;;16.20;;
5979;SDS011;3016;50.308;8.258;2023-02-15T09:05:46;45.33;;;16.17;;
5979;SDS011;3016;50.308;8.258;2023-02-15T09:08:46;42.20;;;14.47;;
5979;SDS011;3016;50.308;8.258;2023-02-15T09:11:49;47.57;;;16.60;;
5979;SDS011;3016;50.308;8.258;2023-02-15T09:14:51;37.13;;;15.00;;
5979;SDS011;3016;50.308;8.258;2023-02-15T09:17:51;47.13;;;16.97;;
5979;SDS011;3016;50.308;8.258;2023-02-15T09:20:52;38.47;;;15.40;;
5979;SDS011;3016;50.308;8.258;2023-02-15T09:23:56;39.23;;;13.67;;
5979;SDS011;3016;50.308;8.258;2023-02-15T09:26:59;45.47;;;16.10;;
5979;SDS011;3016;50.308;8.258;2023-02-15T09:30:00;42.27;;;15.20;;
5979;SDS011;3016;50.308;8.258;2023-02-15T09:33:00;35.57;;;14.43;;
5979;SDS011;3016;50.308;8.258;2023-02-15T09:36:02;39.73;;;14.37;;
5979;SDS011;3016;50.308;8.258;2023-02-15T09:39:09;39.47;;;14.87;;
5979;SDS011;3016;50.308;8.258;2023-02-15T09:45:55;37.37;;;13.40;;
5979;SDS011;3016;50.308;8.258;2023-02-15T09:53:54;33.77;;;12.83;;
5979;SDS011;3016;50.308;8.258;2023-02-15T10:00:39;36.77;;;12.83;;
5979;SDS011;3016;50.308;8.258;2023-02-15T10:03:59;34.27;;;13.60;;
5979;SDS011;3016;50.308;8.258;2023-02-15T10:11:13;36.83;;;13.33;;
5979;SDS011;3016;50.308;8.258;2023-02-15T10:14:49;36.87;;;13.03;;
5979;SDS011;3016;50.308;8.258;2023-02-15T10:25:29;37.10;;;13.10;;
5979;SDS011;3016;50.308;8.258;2023-02-15T10:29:24;37.67;;;12.50;;
5979;SDS011;3016;50.308;8.258;2023-02-15T10:36:27;35.80;;;13.00;;
5979;SDS011;3016;50.308;8.258;2023-02-15T10:40:19;36.33;;;13.50;;
5979;SDS011;3016;50.308;8.258;2023-02-15T10:43:37;36.60;;;11.90;;
5979;SDS011;3016;50.308;8.258;2023-02-15T10:54:13;37.90;;;13.50;;
5979;SDS011;3016;50.308;8.258;2023-02-15T11:04:45;35.03;;;11.63;;
5979;SDS011;3016;50.308;8.258;2023-02-15T11:08:26;34.87;;;11.80;;
5979;SDS011;3016;50.308;8.258;2023-02-15T11:11:35;35.87;;;11.90;;
5979;SDS011;3016;50.308;8.258;2023-02-15T11:18:15;37.70;;;12.33;;
5979;SDS011;3016;50.308;8.258;2023-02-15T11:21:33;39.03;;;13.50;;
5979;SDS011;3016;50.308;8.258;2023-02-15T11:24:44;35.83;;;12.20;;
5979;SDS011;3016;50.308;8.258;2023-02-15T11:27:47;38.10;;;14.83;;
5979;SDS011;3016;50.308;8.258;2023-02-15T11:30:51;39.97;;;12.17;;
5979;SDS011;3016;50.308;8.258;2023-02-15T11:33:57;37.20;;;12.10;;
5979;SDS011;3016;50.308;8.258;2023-02-15T11:37:11;35.87;;;12.73;;
5979;SDS011;3016;50.308;8.258;2023-02-15T11:40:24;40.50;;;17.03;;
5979;SDS011;3016;50.308;8.258;2023-02-15T11:46:45;35.53;;;13.60;;
5979;SDS011;3016;50.308;8.258;2023-02-15T11:49:46;36.33;;;14.13;;
5979;SDS011;3016;50.308;8.258;2023-02-15T11:52:47;36.13;;;13.50;;
5979;SDS011;3016;50.308;8.258;2023-02-15T11:55:50;38.87;;;12.93;;
5979;SDS011;3016;50.308;8.258;2023-02-15T12:02:11;32.57;;;12.23;;
5979;SDS011;3016;50.308;8.258;2023-02-15T12:05:21;34.57;;;12.57;;
5979;SDS011;3016;50.308;8.258;2023-02-15T12:08:26;34.83;;;12.30;;
5979;SDS011;3016;50.308;8.258;2023-02-15T12:11:39;33.07;;;12.30;;
5979;SDS011;3016;50.308;8.258;2023-02-15T12:14:50;34.63;;;11.77;;
5979;SDS011;3016;50.308;8.258;2023-02-15T12:17:54;41.53;;;13.50;;
5979;SDS011;3016;50.308;8.258;2023-02-15T12:20:58;34.40;;;12.97;;
5979;SDS011;3016;50.308;8.258;2023-02-15T12:24:03;39.30;;;13.73;;
5979;SDS011;3016;50.308;8.258;2023-02-15T12:27:24;41.27;;;14.17;;
5979;SDS011;3016;50.308;8.258;2023-02-15T12:30:59;40.67;;;12.80;;
5979;SDS011;3016;50.308;8.258;2023-02-15T12:34:09;35.43;;;12.80;;
5979;SDS011;3016;50.308;8.258;2023-02-15T12:37:30;36.00;;;13.60;;
5979;SDS011;3016;50.308;8.258;2023-02-15T12:40:34;38.17;;;13.97;;
5979;SDS011;3016;50.308;8.258;2023-02-15T12:44:02;35.80;;;12.90;;
5979;SDS011;3016;50.308;8.258;2023-02-15T12:47:18;36.77;;;14.17;;
5979;SDS011;3016;50.308;8.258;2023-02-15T12:50:23;39.23;;;14.40;;
5979;SDS011;3016;50.308;8.258;2023-02-15T12:53:31;42.60;;;16.40;;
5979;SDS011;3016;50.308;8.258;2023-02-15T12:56:37;37.93;;;14.37;;
5979;SDS011;3016;50.308;8.258;2023-02-15T13:00:00;41.00;;;16.40;;
5979;SDS011;3016;50.308;8.258;2023-02-15T13:03:15;44.47;;;16.80;;
5979;SDS011;3016;50.308;8.258;2023-02-15T13:06:19;43.50;;;16.87;;
5979;SDS011;3016;50.308;8.258;2023-02-15T13:13:16;43.30;;;17.30;;
5979;SDS011;3016;50.308;8.258;2023-02-15T13:16:36;41.43;;;16.00;;
5979;SDS011;3016;50.308;8.258;2023-02-15T13:19:52;41.43;;;15.07;;
5979;SDS011;3016;50.308;8.258;2023-02-15T13:23:02;46.70;;;18.20;;
5979;SDS011;3016;50.308;8.258;2023-02-15T13:26:10;43.30;;;16.50;;
5979;SDS011;3016;50.308;8.258;2023-02-15T13:29:22;42.60;;;15.90;;
5979;SDS011;3016;50.308;8.258;2023-02-15T13:32:30;42.07;;;17.67;;
5979;SDS011;3016;50.308;8.258;2023-02-15T13:35:56;41.97;;;17.00;;
5979;SDS011;3016;50.308;8.258;2023-02-15T13:39:27;46.37;;;17.80;;
5979;SDS011;3016;50.308;8.258;2023-02-15T13:42:59;44.30;;;18.60;;
5979;SDS011;3016;50.308;8.258;2023-02-15T13:46:28;42.80;;;18.40;;
5979;SDS011;3016;50.308;8.258;2023-02-15T14:01:09;40.03;;;17.70;;
5979;SDS011;3016;50.308;8.258;2023-02-15T14:11:36;42.83;;;16.13;;
5979;SDS011;3016;50.308;8.258;2023-02-15T14:15:09;44.40;;;18.50;;
5979;SDS011;3016;50.308;8.258;2023-02-15T14:18:36;54.87;;;19.27;;
5979;SDS011;3016;50.308;8.258;2023-02-15T14:21:48;46.77;;;17.70;;
5979;SDS011;3016;50.308;8.258;2023-02-15T14:29:07;43.00;;;16.13;;
5979;SDS011;3016;50.308;8.258;2023-02-15T14:37:09;51.40;;;19.20;;
5979;SDS011;3016;50.308;8.258;2023-02-15T14:40:33;50.17;;;19.60;;
5979;SDS011;3016;50.308;8.258;2023-02-15T14:44:28;45.93;;;18.93;;
5979;SDS011;3016;50.308;8.258;2023-02-15T14:47:55;47.90;;;19.13;;
5979;SDS011;3016;50.308;8.258;2023-02-15T14:51:53;47.43;;;19.00;;
5979;SDS011;3016;50.308;8.258;2023-02-15T14:55:01;47.50;;;19.20;;
5979;SDS011;3016;50.308;8.258;2023-02-15T14:58:17;48.73;;;21.63;;
5979;SDS011;3016;50.308;8.258;2023-02-15T15:08:19;45.37;;;19.43;;
5979;SDS011;3016;50.308;8.258;2023-02-15T15:11:43;47.03;;;19.07;;
5979;SDS011;3016;50.308;8.258;2023-02-15T15:14:47;48.00;;;20.27;;
5979;SDS011;3016;50.308;8.258;2023-02-15T15:24:47;50.90;;;18.80;;
5979;SDS011;3016;50.308;8.258;2023-02-15T15:27:53;52.37;;;18.80;;
5979;SDS011;3016;50.308;8.258;2023-02-15T15:30:54;45.47;;;18.90;;
5979;SDS011;3016;50.308;8.258;2023-02-15T15:41:19;47.90;;;20.70;;
5979;SDS011;3016;50.308;8.258;2023-02-15T15:45:08;51.17;;;22.20;;
5979;SDS011;3016;50.308;8.258;2023-02-15T15:48:45;52.30;;;22.23;;
5979;SDS011;3016;50.308;8.258;2023-02-15T15:51:49;58.20;;;22.40;;
5979;SDS011;3016;50.308;8.258;2023-02-15T15:54:54;53.10;;;21.33;;
5979;SDS011;3016;50.308;8.258;2023-02-15T15:58:08;52.17;;;23.93;;
5979;SDS011;3016;50.308;8.258;2023-02-15T16:01:22;57.67;;;24.30;;
5979;SDS011;3016;50.308;8.258;2023-02-15T16:04:33;56.67;;;22.23;;
5979;SDS011;3016;50.308;8.258;2023-02-15T16:07:41;59.90;;;25.83;;
5979;SDS011;3016;50.308;8.258;2023-02-15T16:10:45;64.43;;;24.33;;
5979;SDS011;3016;50.308;8.258;2023-02-15T16:13:48;58.07;;;22.77;;
5979;SDS011;3016;50.308;8.258;2023-02-15T16:16:50;56.03;;;23.20;;
5979;SDS011;3016;50.308;8.258;2023-02-15T16:19:58;54.70;;;21.50;;
5979;SDS011;3016;50.308;8.258;2023-02-15T16:27:08;68.87;;;26.37;;
5979;SDS011;3016;50.308;8.258;2023-02-15T16:30:40;53.00;;;21.77;;
5979;SDS011;3016;50.308;8.258;2023-02-15T16:33:45;61.87;;;24.30;;
5979;SDS011;3016;50.308;8.258;2023-02-15T16:36:47;55.77;;;26.07;;
5979;SDS011;3016;50.308;8.258;2023-02-15T16:39:54;59.43;;;23.60;;
5979;SDS011;3016;50.308;8.258;2023-02-15T16:43:04;56.73;;;24.33;;
5979;SDS011;3016;50.308;8.258;2023-02-15T16:49:35;60.77;;;26.97;;
5979;SDS011;3016;50.308;8.258;2023-02-15T16:52:36;57.70;;;25.27;;
5979;SDS011;3016;50.308;8.258;2023-02-15T16:55:38;61.30;;;26.67;;
5979;SDS011;3016;50.308;8.258;2023-02-15T16:58:48;60.87;;;26.37;;
5979;SDS011;3016;50.308;8.258;2023-02-15T17:01:54;59.27;;;24.13;;
5979;SDS011;3016;50.308;8.258;2023-02-15T17:05:06;53.87;;;24.33;;
5979;SDS011;3016;50.308;8.258;2023-02-15T17:11:20;52.60;;;22.53;;
5979;SDS011;3016;50.308;8.258;2023-02-15T17:14:37;61.80;;;25.57;;
5979;SDS011;3016;50.308;8.258;2023-02-15T17:17:49;58.47;;;25.37;;
5979;SDS011;3016;50.308;8.258;2023-02-15T17:20:51;55.30;;;25.87;;
5979;SDS011;3016;50.308;8.258;2023-02-15T17:23:57;68.77;;;28.53;;
5979;SDS011;3016;50.308;8.258;2023-02-15T17:27:01;59.70;;;24.70;;
5979;SDS011;3016;50.308;8.258;2023-02-15T17:30:30;60.37;;;25.07;;
5979;SDS011;3016;50.308;8.258;2023-02-15T17:36:39;63.23;;;27.27;;
5979;SDS011;3016;50.308;8.258;2023-02-15T17:40:00;60.10;;;25.30;;
5979;SDS011;3016;50.308;8.258;2023-02-15T17:47:12;63.87;;;27.33;;
5979;SDS011;3016;50.308;8.258;2023-02-15T17:50:22;52.40;;;24.03;;
5979;SDS011;3016;50.308;8.258;2023-02-15T17:53:25;59.77;;;25.60;;
5979;SDS011;3016;50.308;8.258;2023-02-15T17:56:26;60.77;;;26.83;;
5979;SDS011;3016;50.308;8.258;2023-02-15T17:59:34;64.73;;;29.23;;
5979;SDS011;3016;50.308;8.258;2023-02-15T18:02:57;53.13;;;23.97;;
5979;SDS011;3016;50.308;8.258;2023-02-15T18:06:17;56.97;;;26.37;;
5979;SDS011;3016;50.308;8.258;2023-02-15T18:09:36;57.23;;;26.43;;
5979;SDS011;3016;50.308;8.258;2023-02-15T18:12:55;52.03;;;23.33;;
5979;SDS011;3016;50.308;8.258;2023-02-15T18:15:57;53.57;;;24.80;;
5979;SDS011;3016;50.308;8.258;2023-02-15T18:18:58;58.60;;;24.10;;
5979;SDS011;3016;50.308;8.258;2023-02-15T18:21:59;55.43;;;25.40;;
5979;SDS011;3016;50.308;8.258;2023-02-15T18:25:01;57.47;;;25.10;;
5979;SDS011;3016;50.308;8.258;2023-02-15T18:28:02;69.07;;;27.20;;
5979;SDS011;3016;50.308;8.258;2023-02-15T18:31:04;53.83;;;24.70;;
5979;SDS011;3016;50.308;8.258;2023-02-15T18:34:05;60.80;;;26.60;;
5979;SDS011;3016;50.308;8.258;2023-02-15T18:37:37;60.40;;;25.60;;
5979;SDS011;3016;50.308;8.258;2023-02-15T18:40:42;59.10;;;26.60;;
5979;SDS011;3016;50.308;8.258;2023-02-15T18:43:43;56.27;;;25.83;;
5979;SDS011;3016;50.308;8.258;2023-02-15T18:46:45;54.90;;;22.30;;
5979;SDS011;3016;50.308;8.258;2023-02-15T18:49:54;56.37;;;23.90;;
5979;SDS011;3016;50.308;8.258;2023-02-15T18:52:56;54.37;;;24.40;;
5979;SDS011;3016;50.308;8.258;2023-02-15T18:55:58;52.10;;;21.63;;
5979;SDS011;3016;50.308;8.258;2023-02-15T18:58:59;49.70;;;22.00;;
5979;SDS011;3016;50.308;8.258;2023-02-15T19:02:00;51.40;;;21.00;;
5979;SDS011;3016;50.308;8.258;2023-02-15T19:05:01;51.70;;;21.50;;
5979;SDS011;3016;50.308;8.258;2023-02-15T19:08:08;59.80;;;24.43;;
5979;SDS011;3016;50.308;8.258;2023-02-15T19:11:19;57.40;;;26.60;;
5979;SDS011;3016;50.308;8.258;2023-02-15T19:14:23;58.83;;;26.03;;
5979;SDS011;3016;50.308;8.258;2023-02-15T19:17:34;62.73;;;28.03;;
5979;SDS011;3016;50.308;8.258;2023-02-15T19:20:41;65.53;;;28.93;;
5979;SDS011;3016;50.308;8.258;2023-02-15T19:23:46;67.43;;;29.20;;
5979;SDS011;3016;50.308;8.258;2023-02-15T19:26:56;63.90;;;27.57;;
5979;SDS011;3016;50.308;8.258;2023-02-15T19:29:57;64.93;;;29.43;;
5979;SDS011;3016;50.308;8.258;2023-02-15T19:33:02;62.53;;;27.40;;
5979;SDS011;3016;50.308;8.258;2023-02-15T19:36:06;70.17;;;28.37;;
5979;SDS011;3016;50.308;8.258;2023-02-15T19:39:26;61.47;;;28.43;;
5979;SDS011;3016;50.308;8.258;2023-02-15T19:42:41;64.03;;;27.80;;
5979;SDS011;3016;50.308;8.258;2023-02-15T19:45:48;68.23;;;30.13;;
5979;SDS011;3016;50.308;8.258;2023-02-15T19:49:15;75.57;;;29.20;;
5979;SDS011;3016;50.308;8.258;2023-02-15T19:52:23;78.50;;;31.63;;
5979;SDS011;3016;50.308;8.258;2023-02-15T19:58:35;73.23;;;30.83;;
5979;SDS011;3016;50.308;8.258;2023-02-15T20:01:43;63.17;;;30.47;;
5979;SDS011;3016;50.308;8.258;2023-02-15T20:04:45;69.43;;;29.87;;
5979;SDS011;3016;50.308;8.258;2023-02-15T20:07:48;69.67;;;29.60;;
5979;SDS011;3016;50.308;8.258;2023-02-15T20:10:52;72.50;;;32.20;;
5979;SDS011;3016;50.308;8.258;2023-02-15T20:13:53;70.70;;;30.27;;
5979;SDS011;3016;50.308;8.258;2023-02-15T20:16:53;71.77;;;32.23;;
5979;SDS011;3016;50.308;8.258;2023-02-15T20:19:54;69.73;;;32.20;;
5979;SDS011;3016;50.308;8.258;2023-02-15T20:22:56;64.70;;;27.73;;
5979;SDS011;3016;50.308;8.258;2023-02-15T20:25:58;86.17;;;34.13;;
5979;SDS011;3016;50.308;8.258;2023-02-15T20:29:01;76.93;;;33.30;;
5979;SDS011;3016;50.308;8.258;2023-02-15T20:32:02;58.20;;;24.93;;
5979;SDS011;3016;50.308;8.258;2023-02-15T20:35:04;65.90;;;25.17;;
5979;SDS011;3016;50.308;8.258;2023-02-15T20:38:09;62.53;;;27.10;;
5979;SDS011;3016;50.308;8.258;2023-02-15T20:41:23;65.43;;;27.73;;
5979;SDS011;3016;50.308;8.258;2023-02-15T20:44:37;55.27;;;25.07;;
5979;SDS011;3016;50.308;8.258;2023-02-15T20:50:50;61.83;;;28.70;;
5979;SDS011;3016;50.308;8.258;2023-02-15T20:53:54;54.50;;;26.00;;
5979;SDS011;3016;50.308;8.258;2023-02-15T20:56:55;60.50;;;26.17;;
5979;SDS011;3016;50.308;8.258;2023-02-15T20:59:57;48.33;;;20.93;;
5979;SDS011;3016;50.308;8.258;2023-02-15T21:02:58;49.70;;;22.00;;
5979;SDS011;3016;50.308;8.258;2023-02-15T21:06:00;61.47;;;29.10;;
5979;SDS011;3016;50.308;8.258;2023-02-15T21:09:02;57.70;;;24.90;;
5979;SDS011;3016;50.308;8.258;2023-02-15T21:12:03;53.27;;;22.60;;
5979;SDS011;3016;50.308;8.258;2023-02-15T21:15:22;51.57;;;23.87;;
5979;SDS011;3016;50.308;8.258;2023-02-15T21:18:32;55.33;;;24.17;;
5979;SDS011;3016;50.308;8.258;2023-02-15T21:21:33;54.70;;;23.83;;
5979;SDS011;3016;50.308;8.258;2023-02-15T21:24:34;56.50;;;22.63;;
5979;SDS011;3016;50.308;8.258;2023-02-15T21:27:36;54.23;;;22.20;;